Airfield :
LOGIN :

Register | Disclaimer

   EN    FR    IT 

 










Legend :    VFR   Marginal VFR   IFR   Intensive IFR   Very Intensive IFR
Visi :
Ceiling :
>= 8 km
>= 3000ft
5 to 8 km
1000 to 3000 ft
1500m to 5 km
500 to 1000 ft
800 to 1500m
200 to 500 ft
< 800m
< 200 ft
Symbols :   Thunderstorms  Fog  Heavy snow  Heavy precipitations  Wind > 20 kt
SIGMETs :     Misc.  Thunderstorms  Icing  Turbulence  Mountain Waves  Volcanic Ashes






- Airport Elevation : 142 ft
- IATA code : ALC


LEAL - Alicante

CURRENT METAR :
  • 141130Z 08009KT 050V110 9999 SCT019 BKN028 17/11 Q1020 NOSIG

EXPIRED METARs :
  • 141100Z 07010KT 030V100 9999 SCT019 BKN028 16/11 Q1020 NOSIG
  • 141030Z 07009KT 9999 SCT019 BKN028 16/11 Q1020 NOSIG
  • 141000Z 07010KT 9999 SCT019 BKN028 16/11 Q1020 NOSIG
  • 140930Z 06008KT 020V080 9999 SCT019 BKN028 16/11 Q1020 NOSIG
  • 140900Z 05010KT 020V080 9999 SCT019 BKN028 16/11 Q1020 NOSIG

TAF TAF LEAL
Valid from the 14 at 12:00 until the 15 at 12:00 UTC


141100Z 1412/1512 08012KT 9999 BKN030 TX17/1412Z TN12/1506Z
PROB40
TEMPO 1418/1512 RA BKN010 SCT060TCU
BECMG 1500/1502 02005KT
BECMG 1508/1510 02015KT



MET'MAP, your aeronautical weather chart ! - Copyright ORBIFLY December 2007 - Disclaimer

ORBIFLY MET'MAP TEAM :

Programming & Development : Alexandra Zaïnal
Concept & original design : Baudouin d'Aumeries
Assistance for programming : Marc-Olivier Méhu
Technical & hardware support : Manuel Goepfert

Contact : metmap@orbifly.com




SOURCES & CREDITS :

   NOAA